Time;durP1;ratioP1;P1;durP2;ratioP2;P2;SDS_P1;SDS_P2;PMS_P1;PMS_P2;Temp;Humidity;BMP_temperature;BMP_pressure;BME280_temperature;BME280_humidity;BME280_pressure;Samples;Min_cycle;Max_cycle;Signal;HPM_P1;HPM_P2
2023/10/31 00:34:28;;;;;;;33.73;20.37;;;9.80;99.90;;;;;;6044945;23;20185;-87
2023/10/31 00:54:44;;;;;;;27.20;20.37;;;10.00;99.90;;;;;;6126111;22;20220;-86
2023/10/31 01:25:13;;;;;;;27.17;18.60;;;9.90;99.90;;;;;;5912941;23;20218;-88
2023/10/31 01:29:37;;;;;;;28.73;19.73;;;9.90;99.90;;;;;;5746409;24;20567;-85
2023/10/31 01:55:34;;;;;;;32.23;21.37;;;10.60;99.90;;;;;;5844120;24;20194;-86
2023/10/31 02:35:32;;;;;;;22.33;15.83;;;10.90;99.90;;;;;;5577490;24;20728;-86
2023/10/31 02:56:23;;;;;;;25.13;15.47;;;11.10;99.90;;;;;;5787754;24;20699;-86
2023/10/31 03:21:44;;;;;;;20.77;13.60;;;11.50;99.90;;;;;;5581297;24;20247;-88
2023/10/31 03:51:35;;;;;;;13.10;10.57;;;12.00;99.90;;;;;;5836879;23;20474;-87
2023/10/31 04:12:30;;;;;;;9.50;8.00;;;12.20;99.90;;;;;;5813617;23;20370;-88
2023/10/31 05:22:44;;;;;;;8.13;5.87;;;13.40;99.90;;;;;;5990761;23;20187;-89
2023/10/31 05:32:45;;;;;;;6.53;4.97;;;13.50;99.90;;;;;;6240681;22;20184;-85
2023/10/31 05:53:27;;;;;;;6.63;5.10;;;13.60;99.90;;;;;;5899435;23;20189;-85
2023/10/31 06:13:47;;;;;;;7.33;5.10;;;13.80;99.90;;;;;;5708871;24;20251;-85
2023/10/31 07:14:36;;;;;;;9.17;5.33;;;13.90;99.90;;;;;;5766175;24;20204;-85
2023/10/31 07:49:53;;;;;;;12.93;5.70;;;14.30;99.90;;;;;;5952015;23;20250;-88
2023/10/31 08:30:42;;;;;;;8.80;4.80;;;14.50;99.90;;;;;;5967813;23;20244;-85
2023/10/31 08:55:39;;;;;;;5.80;3.80;;;15.40;99.90;;;;;;5826275;23;20699;-85
2023/10/31 09:21:22;;;;;;;8.50;4.40;;;15.30;99.90;;;;;;5714292;24;20440;-86
2023/10/31 09:51:22;;;;;;;5.13;3.80;;;15.60;99.90;;;;;;6163959;22;21310;-85
2023/10/31 10:57:30;;;;;;;5.03;3.80;;;17.00;92.20;;;;;;6129136;22;20156;-86
2023/10/31 11:32:40;;;;;;;4.97;3.40;;;17.50;92.50;;;;;;5866619;24;20511;-86
2023/10/31 12:08:07;;;;;;;4.23;3.37;;;17.70;97.00;;;;;;5867019;23;20539;-87
2023/10/31 12:33:44;;;;;;;3.67;2.40;;;17.50;98.50;;;;;;5888236;23;20642;-85
2023/10/31 13:04:31;;;;;;;2.10;1.90;;;17.20;99.90;;;;;;5956232;23;20623;-86
2023/10/31 13:08:51;;;;;;;3.43;1.70;;;17.00;99.90;;;;;;5851032;23;21311;-84
2023/10/31 13:29:50;;;;;;;3.03;2.10;;;16.90;99.90;;;;;;5786892;24;20322;-87
2023/10/31 13:54:46;;;;;;;2.30;2.00;;;16.60;99.90;;;;;;5727951;24;20346;-84
2023/10/31 14:40:53;;;;;;;2.50;2.30;;;16.40;99.90;;;;;;5864574;24;20217;-86
2023/10/31 14:45:12;;;;;;;4.47;2.43;;;16.30;99.90;;;;;;5780618;24;20587;-88
2023/10/31 15:06:07;;;;;;;2.83;2.63;;;15.60;99.90;;;;;;5780754;24;20324;-84
2023/10/31 15:31:09;;;;;;;2.33;2.13;;;14.60;99.90;;;;;;5647192;24;20573;-84
2023/10/31 16:01:15;;;;;;;3.27;2.33;;;14.50;99.90;;;;;;5695463;24;20201;-87
2023/10/31 16:37:18;;;;;;;3.53;2.63;;;14.60;99.90;;;;;;5826364;24;20244;-83
2023/10/31 17:22:24;;;;;;;5.83;5.00;;;13.10;99.90;;;;;;6195812;22;20187;31
2023/10/31 17:47:41;;;;;;;5.57;4.57;;;12.80;99.90;;;;;;5743090;24;20735;-84
2023/10/31 18:08:34;;;;;;;4.43;4.03;;;13.00;99.90;;;;;;5888812;24;20260;-86
2023/10/31 19:04:13;;;;;;;5.33;4.83;;;12.60;99.90;;;;;;6002453;23;20182;-84
2023/10/31 19:34:35;;;;;;;6.03;5.00;;;12.60;99.90;;;;;;5981123;23;20388;-88
2023/10/31 19:59:44;;;;;;;5.40;4.90;;;12.90;99.90;;;;;;6229022;22;20229;-87
2023/10/31 20:25:11;;;;;;;5.20;4.70;;;12.40;99.90;;;;;;6198303;22;20176;-90
2023/10/31 20:55:21;;;;;;;4.57;3.53;;;12.80;99.90;;;;;;5731361;24;20676;-85
2023/10/31 21:25:54;;;;;;;3.20;2.47;;;12.80;99.90;;;;;;6146326;23;20168;-87
2023/10/31 22:10:48;;;;;;;3.50;2.93;;;12.50;99.90;;;;;;5982338;23;20584;-85
2023/10/31 22:31:38;;;;;;;2.63;2.20;;;12.20;99.90;;;;;;5796097;24;20723;-87
2023/10/31 23:01:29;;;;;;;2.60;2.40;;;11.80;99.90;;;;;;5681570;24;20506;-83
2023/10/31 23:32:24;;;;;;;3.53;2.70;;;12.00;99.90;;;;;;5976478;23;20763;-86
